Time;durP1;ratioP1;P1;durP2;ratioP2;P2;SDS_P1;SDS_P2;PMS_P1;PMS_P2;Temp;Humidity;BMP_temperature;BMP_pressure;BME280_temperature;BME280_humidity;BME280_pressure;Samples;Min_cycle;Max_cycle;Signal;HPM_P1;HPM_P2
2022/04/20 00:00:16;;;;;;;18.70;11.05;;;11.90;99.90;;;;;;5075267;28;20048;-73
2022/04/20 00:02:41;;;;;;;20.88;11.00;;;11.90;99.90;;;;;;5075389;28;20029;-73
2022/04/20 00:05:08;;;;;;;23.55;11.35;;;11.90;99.90;;;;;;5075208;28;20098;-73
2022/04/20 00:07:33;;;;;;;24.00;11.25;;;11.80;99.90;;;;;;5075446;28;20029;-74
2022/04/20 00:09:59;;;;;;;20.35;11.27;;;11.80;99.90;;;;;;5075121;28;20500;-74
2022/04/20 00:12:25;;;;;;;18.83;10.68;;;11.80;99.90;;;;;;5075174;28;20028;-73
2022/04/20 00:14:51;;;;;;;22.75;11.43;;;11.70;99.90;;;;;;5075178;28;20072;-74
2022/04/20 00:17:17;;;;;;;17.65;9.88;;;11.70;99.90;;;;;;5057226;28;20058;-73
2022/04/20 00:19:42;;;;;;;22.67;10.70;;;11.70;99.90;;;;;;5074955;28;20476;-73
2022/04/20 00:22:08;;;;;;;21.55;10.80;;;11.70;99.90;;;;;;5074802;28;20187;-73
2022/04/20 00:24:34;;;;;;;20.40;10.57;;;11.60;99.90;;;;;;5075102;28;20456;-73
2022/04/20 00:26:59;;;;;;;18.23;10.88;;;11.60;99.90;;;;;;5074950;28;20407;-74
2022/04/20 00:29:25;;;;;;;19.33;10.73;;;11.60;99.90;;;;;;5074775;28;20025;-73
2022/04/20 00:31:50;;;;;;;17.80;10.73;;;11.50;99.90;;;;;;5074689;28;20107;-73
2022/04/20 00:34:16;;;;;;;20.25;11.40;;;11.50;99.90;;;;;;5074836;28;20048;-73
2022/04/20 00:36:41;;;;;;;20.83;10.80;;;11.50;99.90;;;;;;5075311;28;20059;-73
2022/04/20 00:39:07;;;;;;;18.25;10.30;;;11.50;99.90;;;;;;5075275;28;20099;-74
2022/04/20 00:41:33;;;;;;;19.98;11.20;;;11.50;99.90;;;;;;5074490;28;20039;-74
2022/04/20 00:44:00;;;;;;;18.08;10.32;;;11.40;99.90;;;;;;5074788;28;20025;-72
2022/04/20 00:46:26;;;;;;;22.23;11.23;;;11.40;99.90;;;;;;5073183;28;20507;-74
2022/04/20 00:48:52;;;;;;;20.13;10.30;;;11.30;99.90;;;;;;5074712;28;20021;-73
2022/04/20 00:51:19;;;;;;;17.15;10.48;;;11.40;99.90;;;;;;5074163;28;20384;-74
2022/04/20 00:53:44;;;;;;;19.67;10.80;;;11.30;99.90;;;;;;5074695;28;20035;-73
2022/04/20 00:56:10;;;;;;;18.63;10.15;;;11.30;99.90;;;;;;5074336;28;20021;-72
2022/04/20 00:58:39;;;;;;;19.85;10.65;;;11.20;99.90;;;;;;5074514;28;20108;-73
2022/04/20 01:01:05;;;;;;;19.20;10.35;;;11.20;99.90;;;;;;5074587;28;20027;-73
2022/04/20 01:03:31;;;;;;;17.13;10.18;;;11.10;99.90;;;;;;5075045;28;20621;-73
2022/04/20 01:05:56;;;;;;;16.25;9.57;;;11.10;99.90;;;;;;5074880;28;20384;-73
2022/04/20 01:08:22;;;;;;;21.35;10.32;;;11.10;99.90;;;;;;5074818;28;20024;-73
2022/04/20 01:10:47;;;;;;;18.60;10.55;;;11.10;99.90;;;;;;5074175;28;20028;-72
2022/04/20 01:13:13;;;;;;;18.77;10.02;;;11.10;99.90;;;;;;5074486;28;20032;-73
2022/04/20 01:15:39;;;;;;;18.88;9.80;;;11.00;99.90;;;;;;5074513;28;20035;-73
2022/04/20 01:18:15;;;;;;;16.50;10.05;;;11.00;99.90;;;;;;5074301;28;20416;-73
2022/04/20 01:20:41;;;;;;;19.23;10.18;;;11.00;99.90;;;;;;5074788;28;20016;-73
2022/04/20 01:23:07;;;;;;;18.67;10.32;;;10.90;99.90;;;;;;5074186;28;20029;-73
2022/04/20 01:25:33;;;;;;;18.60;9.57;;;10.90;99.90;;;;;;5074653;28;20457;-72
2022/04/20 01:28:00;;;;;;;17.15;9.82;;;10.80;99.90;;;;;;5074344;28;20099;-74
2022/04/20 01:30:25;;;;;;;17.77;9.93;;;10.90;99.90;;;;;;5074470;28;20021;-73
2022/04/20 01:32:51;;;;;;;15.63;9.13;;;10.80;99.90;;;;;;5073727;28;20024;-73
2022/04/20 01:35:17;;;;;;;16.55;8.80;;;10.80;99.90;;;;;;5074022;28;20027;-74
2022/04/20 01:37:42;;;;;;;17.33;9.07;;;10.80;99.90;;;;;;5073794;28;20550;-73
2022/04/20 01:40:08;;;;;;;17.67;10.25;;;10.70;99.90;;;;;;5074127;28;20448;-73
2022/04/20 01:42:34;;;;;;;17.35;9.48;;;10.70;99.90;;;;;;5073737;28;20033;-73
2022/04/20 01:45:01;;;;;;;16.65;9.48;;;10.70;99.90;;;;;;5073961;28;20016;-73
2022/04/20 01:47:27;;;;;;;17.15;9.25;;;10.70;99.90;;;;;;5073675;28;20032;-73
2022/04/20 01:49:52;;;;;;;15.52;8.70;;;10.60;99.90;;;;;;5073758;28;20032;-74
2022/04/20 01:52:18;;;;;;;16.75;9.60;;;10.60;99.90;;;;;;5073413;28;20028;-74
2022/04/20 01:54:44;;;;;;;16.00;9.65;;;10.60;99.90;;;;;;5073537;28;20039;-73
2022/04/20 01:57:09;;;;;;;14.60;9.05;;;10.60;99.90;;;;;;5073502;28;20039;-73
2022/04/20 01:59:35;;;;;;;18.08;9.25;;;10.50;99.90;;;;;;5073409;28;20029;-74
2022/04/20 02:04:44;;;;;;;16.08;9.48;;;10.40;99.90;;;;;;5073611;28;20478;-74
2022/04/20 02:07:10;;;;;;;15.75;9.60;;;10.40;99.90;;;;;;5073286;28;20025;-74
2022/04/20 02:09:36;;;;;;;14.85;9.15;;;10.50;99.90;;;;;;5073130;28;20048;-74
2022/04/20 02:12:01;;;;;;;15.80;8.82;;;10.40;99.90;;;;;;5055053;28;20051;-73
2022/04/20 02:14:27;;;;;;;15.20;8.80;;;10.40;99.90;;;;;;5073213;28;20075;-73
2022/04/20 02:16:53;;;;;;;17.40;9.27;;;10.40;99.90;;;;;;5073130;28;20050;-74
2022/04/20 02:19:18;;;;;;;14.95;9.05;;;10.30;99.90;;;;;;5072791;28;20404;-73
2022/04/20 02:21:44;;;;;;;17.10;9.40;;;10.30;99.90;;;;;;5072780;28;20056;-73
2022/04/20 02:24:14;;;;;;;15.20;9.15;;;10.30;99.90;;;;;;5072745;28;20369;-74
2022/04/20 02:26:40;;;;;;;17.60;9.48;;;10.30;99.90;;;;;;5072903;28;20098;-73
2022/04/20 02:29:06;;;;;;;14.85;9.15;;;10.20;99.90;;;;;;5072971;28;20025;-73
2022/04/20 02:31:31;;;;;;;16.55;8.85;;;10.20;99.90;;;;;;5072722;28;20426;-73
2022/04/20 02:33:57;;;;;;;16.35;9.32;;;10.20;99.90;;;;;;5072988;28;20043;-73
2022/04/20 02:36:23;;;;;;;15.60;9.52;;;10.20;99.90;;;;;;5073326;28;20095;-73
2022/04/20 02:38:49;;;;;;;13.05;8.98;;;10.20;99.90;;;;;;5072968;28;20427;-73
2022/04/20 02:41:15;;;;;;;16.00;8.85;;;10.10;99.90;;;;;;5073197;28;20035;-74
2022/04/20 02:43:41;;;;;;;16.48;9.18;;;10.10;99.90;;;;;;5072988;28;20025;-74
2022/04/20 02:46:06;;;;;;;15.95;9.70;;;10.10;99.90;;;;;;5073333;28;20089;-73
2022/04/20 02:48:32;;;;;;;17.42;9.43;;;10.00;99.90;;;;;;5072710;28;20077;-74
2022/04/20 02:50:58;;;;;;;14.18;9.20;;;10.00;99.90;;;;;;5072328;28;20550;-74
2022/04/20 02:53:23;;;;;;;13.57;8.60;;;10.00;99.90;;;;;;5072426;28;20031;-75
2022/04/20 02:55:49;;;;;;;14.73;8.63;;;9.90;99.90;;;;;;5072416;28;20020;-71
2022/04/20 02:58:15;;;;;;;15.80;8.60;;;9.90;99.90;;;;;;5072194;28;20028;-73
2022/04/20 03:00:40;;;;;;;15.02;8.40;;;9.90;99.90;;;;;;5072077;28;20116;-72
2022/04/20 03:03:06;;;;;;;16.33;9.23;;;9.90;99.90;;;;;;5072366;28;20082;-73
2022/04/20 03:05:31;;;;;;;17.83;9.30;;;9.80;99.90;;;;;;5072199;28;20025;-73
2022/04/20 03:07:57;;;;;;;15.68;8.65;;;9.90;99.90;;;;;;5072415;28;20032;-73
2022/04/20 03:10:23;;;;;;;14.07;8.20;;;9.80;99.90;;;;;;5072202;28;20020;-73
2022/04/20 03:12:49;;;;;;;14.45;8.93;;;9.80;99.90;;;;;;5054223;28;20033;-74
2022/04/20 03:15:15;;;;;;;14.48;8.55;;;9.80;99.90;;;;;;5071929;28;20376;-73
2022/04/20 03:17:41;;;;;;;14.63;9.00;;;9.80;99.90;;;;;;5072431;28;20046;-73
2022/04/20 03:20:07;;;;;;;16.20;8.73;;;9.70;99.90;;;;;;5072358;28;20048;-73
2022/04/20 03:22:33;;;;;;;14.70;8.85;;;9.70;99.90;;;;;;5071744;28;20024;-73
2022/04/20 03:24:58;;;;;;;14.27;8.60;;;9.70;99.90;;;;;;5071955;28;20024;-73
2022/04/20 03:27:24;;;;;;;15.27;9.32;;;9.70;99.90;;;;;;5071956;28;20082;-73
2022/04/20 03:29:49;;;;;;;15.23;8.80;;;9.70;99.90;;;;;;5071739;28;20407;-74
2022/04/20 03:32:16;;;;;;;15.32;8.57;;;9.60;99.90;;;;;;5072084;28;20035;-73
2022/04/20 03:34:42;;;;;;;15.77;8.88;;;9.60;99.90;;;;;;5072057;28;20399;-74
2022/04/20 03:37:12;;;;;;;16.05;8.77;;;9.60;99.90;;;;;;5071727;28;20075;-73
2022/04/20 03:39:38;;;;;;;14.00;8.90;;;9.60;99.90;;;;;;5071993;28;20028;-73
2022/04/20 03:42:04;;;;;;;15.68;9.05;;;9.50;99.90;;;;;;5071401;28;20024;-73
2022/04/20 03:44:31;;;;;;;13.00;8.70;;;9.50;99.90;;;;;;5071821;28;20024;-74
2022/04/20 03:46:56;;;;;;;18.25;8.98;;;9.50;99.90;;;;;;5071394;28;20017;-73
2022/04/20 03:49:22;;;;;;;14.27;8.48;;;9.40;99.90;;;;;;5071639;28;20040;-73
2022/04/20 03:51:47;;;;;;;13.68;8.40;;;9.40;99.90;;;;;;5072011;28;20028;-73
2022/04/20 03:54:14;;;;;;;15.73;8.45;;;9.40;99.90;;;;;;5071944;28;20107;-74
2022/04/20 03:59:23;;;;;;;13.35;8.25;;;9.30;99.90;;;;;;5071714;28;20039;-74
2022/04/20 04:01:49;;;;;;;12.57;7.60;;;9.30;99.90;;;;;;5071709;28;20028;-73
2022/04/20 04:04:15;;;;;;;13.93;8.50;;;9.30;99.90;;;;;;5071584;28;20021;-74
2022/04/20 04:06:40;;;;;;;13.80;8.27;;;9.30;99.90;;;;;;5072203;28;20112;-72
2022/04/20 04:09:06;;;;;;;13.68;8.25;;;9.30;99.90;;;;;;5071983;28;20078;-73
2022/04/20 04:11:31;;;;;;;16.00;8.73;;;9.30;99.90;;;;;;5071698;28;20031;-73
2022/04/20 04:13:57;;;;;;;16.00;8.32;;;9.20;99.90;;;;;;5073952;28;20110;-74
2022/04/20 04:16:22;;;;;;;15.45;7.70;;;9.20;99.90;;;;;;5075718;28;20085;-74
2022/04/20 04:18:48;;;;;;;12.43;7.95;;;9.20;99.90;;;;;;5075052;28;20059;-74
2022/04/20 04:21:13;;;;;;;13.48;8.07;;;9.20;99.90;;;;;;5075339;28;20025;-73
2022/04/20 04:23:39;;;;;;;14.57;8.35;;;9.10;99.90;;;;;;5075051;28;20024;-73
2022/04/20 04:26:04;;;;;;;14.90;8.27;;;9.10;99.90;;;;;;5057304;28;20017;-73
2022/04/20 04:28:30;;;;;;;11.57;7.68;;;9.00;99.90;;;;;;5075247;28;20016;-73
2022/04/20 04:30:56;;;;;;;14.02;7.93;;;9.00;99.90;;;;;;5074540;28;20033;-73
2022/04/20 04:33:21;;;;;;;15.70;8.63;;;9.00;99.90;;;;;;5075312;28;20040;-74
2022/04/20 04:35:47;;;;;;;13.52;7.53;;;9.00;99.90;;;;;;5071963;28;20029;-75
2022/04/20 04:38:14;;;;;;;15.55;7.35;;;8.90;99.90;;;;;;5060628;28;20013;-74
2022/04/20 04:40:40;;;;;;;12.52;7.65;;;9.00;99.90;;;;;;5068364;28;20028;-73
2022/04/20 04:43:06;;;;;;;13.05;7.75;;;8.90;99.90;;;;;;5074676;28;20029;-73
2022/04/20 04:51:01;;;;;;;15.88;7.57;;;8.90;99.90;;;;;;5066813;28;20092;-73
2022/04/20 04:53:26;;;;;;;13.90;7.35;;;8.90;99.90;;;;;;5070696;28;20710;-74
2022/04/20 04:55:52;;;;;;;12.98;7.45;;;8.90;99.90;;;;;;5073794;28;20024;-75
2022/04/20 04:58:17;;;;;;;14.77;7.80;;;8.80;99.90;;;;;;5074123;28;20138;-73
2022/04/20 05:00:43;;;;;;;13.40;7.00;;;8.80;99.90;;;;;;5074453;28;20028;-74
2022/04/20 05:03:09;;;;;;;11.05;7.32;;;8.80;99.90;;;;;;5074018;28;20024;-75
2022/04/20 05:05:35;;;;;;;13.82;7.43;;;8.80;99.90;;;;;;5053882;28;20028;-74
2022/04/20 05:08:00;;;;;;;15.15;7.90;;;8.80;99.90;;;;;;5071351;28;20491;-75
2022/04/20 05:10:26;;;;;;;13.38;7.30;;;8.80;99.90;;;;;;5074401;28;20457;-73
2022/04/20 05:12:52;;;;;;;14.68;7.32;;;8.80;99.90;;;;;;5074258;28;20024;-74
2022/04/20 05:15:18;;;;;;;14.50;7.50;;;8.80;99.90;;;;;;5074334;28;20043;-74
2022/04/20 05:17:44;;;;;;;14.82;7.97;;;8.80;99.90;;;;;;5075294;28;20392;-73
2022/04/20 05:20:09;;;;;;;13.73;7.45;;;8.70;99.90;;;;;;5043357;28;20025;-74
2022/04/20 05:22:37;;;;;;;16.40;7.75;;;8.80;99.90;;;;;;5065925;28;20028;-74
2022/04/20 05:25:03;;;;;;;11.88;7.25;;;8.80;99.90;;;;;;5055686;28;20361;-73
2022/04/20 05:27:28;;;;;;;18.50;7.28;;;8.70;99.90;;;;;;5064104;28;20033;-75
2022/04/20 05:29:54;;;;;;;17.80;7.43;;;8.70;99.90;;;;;;5074423;28;20078;-74
2022/04/20 05:32:19;;;;;;;12.95;7.43;;;8.80;99.90;;;;;;5073755;28;20032;-73
2022/04/20 05:34:45;;;;;;;14.35;7.85;;;8.80;99.90;;;;;;5072376;28;20103;-73
2022/04/20 05:42:38;;;;;;;14.40;7.25;;;8.80;99.90;;;;;;5071052;28;20391;-75
2022/04/20 05:45:04;;;;;;;15.02;7.65;;;8.80;99.90;;;;;;5073563;28;20020;-74
2022/04/20 05:47:30;;;;;;;11.55;6.82;;;8.80;99.90;;;;;;5072889;28;20024;-74
2022/04/20 05:49:56;;;;;;;12.95;7.43;;;8.80;99.90;;;;;;5072953;28;20016;-75
2022/04/20 05:52:21;;;;;;;12.32;7.45;;;8.90;99.90;;;;;;5072879;28;20108;-74
2022/04/20 05:54:47;;;;;;;16.55;7.40;;;8.90;99.90;;;;;;5073073;28;20032;-74
2022/04/20 05:57:12;;;;;;;12.73;7.30;;;8.90;99.90;;;;;;5054973;28;20028;-74
2022/04/20 05:59:38;;;;;;;10.27;6.65;;;8.90;99.90;;;;;;5072941;28;20024;-77
2022/04/20 06:02:03;;;;;;;11.13;6.88;;;9.00;99.90;;;;;;5073065;28;20028;-75
2022/04/20 06:04:30;;;;;;;16.15;7.05;;;9.00;99.90;;;;;;5054700;28;20013;-74
2022/04/20 06:06:55;;;;;;;11.32;6.65;;;9.00;99.90;;;;;;5066899;28;20027;-73
2022/04/20 06:09:21;;;;;;;11.20;7.03;;;9.10;99.90;;;;;;5065601;28;20013;-72
2022/04/20 06:11:47;;;;;;;11.18;6.65;;;9.10;99.90;;;;;;5072341;28;20469;-76
2022/04/20 06:14:12;;;;;;;12.95;7.10;;;9.10;99.90;;;;;;5068468;28;20028;-74
2022/04/20 06:16:38;;;;;;;12.00;6.53;;;9.20;99.90;;;;;;5065367;28;20028;-74
2022/04/20 06:19:03;;;;;;;10.65;6.68;;;9.20;99.90;;;;;;5052910;28;20057;-74
2022/04/20 06:21:29;;;;;;;10.40;6.28;;;9.20;99.90;;;;;;5052380;28;20036;-74
2022/04/20 06:23:54;;;;;;;11.23;6.80;;;9.30;99.90;;;;;;5057362;28;20029;-74
2022/04/20 06:26:20;;;;;;;10.18;6.55;;;9.30;99.90;;;;;;5081760;28;20027;-78
2022/04/20 06:28:45;;;;;;;11.98;6.85;;;9.40;99.90;;;;;;5061565;28;20048;-76
2022/04/20 06:31:11;;;;;;;12.27;6.38;;;9.40;99.90;;;;;;5078776;28;20146;-81
2022/04/20 06:33:36;;;;;;;10.20;6.90;;;9.50;99.90;;;;;;5078979;28;20472;-78
2022/04/20 06:36:02;;;;;;;9.38;6.45;;;9.60;99.90;;;;;;5079292;28;20374;-79
2022/04/20 06:38:28;;;;;;;10.48;6.10;;;9.60;99.90;;;;;;5078710;28;20024;-77
2022/04/20 06:40:54;;;;;;;11.77;7.10;;;9.70;99.90;;;;;;5060421;28;20039;-77
2022/04/20 06:43:22;;;;;;;9.10;6.40;;;9.70;99.90;;;;;;5077467;28;20025;-77
2022/04/20 06:45:48;;;;;;;12.30;6.75;;;9.80;99.90;;;;;;5080282;28;20047;-77
2022/04/20 06:48:13;;;;;;;11.57;6.35;;;9.80;99.90;;;;;;5066514;28;20024;-79
2022/04/20 06:50:43;;;;;;;11.27;6.15;;;9.90;99.90;;;;;;5067099;28;20020;-78
2022/04/20 06:58:38;;;;;;;14.68;5.95;;;10.10;99.90;;;;;;5049211;28;20044;-76
2022/04/20 07:01:07;;;;;;;11.07;5.82;;;10.20;99.90;;;;;;5059638;28;20351;-75
2022/04/20 07:03:36;;;;;;;12.05;5.80;;;10.30;99.90;;;;;;5071079;28;20032;-75
2022/04/20 07:06:03;;;;;;;10.45;5.65;;;10.30;99.90;;;;;;5069980;28;20037;-77
2022/04/20 07:08:29;;;;;;;10.75;5.72;;;10.40;99.90;;;;;;5070428;28;20036;-75
2022/04/20 07:10:55;;;;;;;11.85;6.07;;;10.50;99.90;;;;;;5069966;28;20024;-75
2022/04/20 07:13:21;;;;;;;9.25;5.45;;;10.60;99.90;;;;;;5070697;28;20029;-76
2022/04/20 07:15:46;;;;;;;10.38;5.72;;;10.70;99.90;;;;;;5070739;28;20548;-75
2022/04/20 07:18:12;;;;;;;12.07;6.07;;;10.80;99.90;;;;;;5070505;28;20048;-75
2022/04/20 07:20:39;;;;;;;10.18;5.43;;;10.90;99.90;;;;;;5070277;28;20471;-75
2022/04/20 07:23:05;;;;;;;10.40;5.65;;;11.10;99.90;;;;;;5071444;28;20142;-77
2022/04/20 07:25:32;;;;;;;8.23;5.28;;;11.20;99.90;;;;;;5072097;28;20017;-75
2022/04/20 07:27:57;;;;;;;9.25;5.82;;;11.30;99.90;;;;;;5070885;28;20492;-75
2022/04/20 07:30:23;;;;;;;11.40;5.38;;;11.50;99.90;;;;;;5070625;28;20060;-75
2022/04/20 07:32:49;;;;;;;9.57;5.43;;;11.60;99.90;;;;;;5070464;28;20109;-76
2022/04/20 07:35:14;;;;;;;10.68;5.15;;;11.70;99.90;;;;;;5070631;28;20021;-76
2022/04/20 07:37:40;;;;;;;11.98;5.20;;;11.90;99.90;;;;;;5070424;28;20029;-76
2022/04/20 07:40:06;;;;;;;11.35;4.93;;;12.00;99.90;;;;;;5070490;28;20027;-75
2022/04/20 07:42:33;;;;;;;14.43;5.80;;;12.10;99.90;;;;;;5070397;28;20021;-76
2022/04/20 07:44:59;;;;;;;10.23;5.07;;;12.30;99.90;;;;;;5070927;28;20545;-75
2022/04/20 07:47:27;;;;;;;11.00;5.20;;;12.50;99.90;;;;;;5072652;28;20024;-76
2022/04/20 07:52:38;;;;;;;8.27;4.72;;;12.80;98.30;;;;;;5074567;28;20059;-77
2022/04/20 07:55:09;;;;;;;8.68;5.05;;;13.00;97.40;;;;;;5070895;28;20021;-75
2022/04/20 07:57:35;;;;;;;10.68;5.07;;;13.10;97.00;;;;;;5059751;28;20051;-74
2022/04/20 08:00:01;;;;;;;8.90;4.80;;;13.30;96.00;;;;;;5064499;28;20092;-74
2022/04/20 08:02:26;;;;;;;11.75;5.47;;;13.50;95.30;;;;;;5040610;28;20037;-74
2022/04/20 08:04:52;;;;;;;9.73;7.03;;;13.60;94.80;;;;;;5074480;28;20534;-74
2022/04/20 08:07:19;;;;;;;8.43;5.03;;;13.80;93.60;;;;;;5074625;28;20453;-74
2022/04/20 08:09:45;;;;;;;7.50;4.28;;;14.00;92.90;;;;;;5056508;28;20025;-74
2022/04/20 08:12:11;;;;;;;9.00;5.05;;;14.10;92.80;;;;;;5074693;28;20016;-75
2022/04/20 08:14:36;;;;;;;7.28;4.82;;;14.30;91.30;;;;;;5076015;28;20036;-74
2022/04/20 08:17:02;;;;;;;9.07;5.07;;;14.50;90.60;;;;;;5078235;28;20025;-75
2022/04/20 08:19:29;;;;;;;7.70;4.82;;;14.60;89.30;;;;;;5056986;28;20409;-75
2022/04/20 08:21:55;;;;;;;12.30;6.47;;;14.70;87.10;;;;;;5069308;28;20144;-75
2022/04/20 08:24:21;;;;;;;7.45;4.60;;;14.80;84.70;;;;;;5066291;28;20081;-75
2022/04/20 08:26:47;;;;;;;10.57;5.45;;;14.90;83.40;;;;;;5049466;28;20040;-75
2022/04/20 08:29:12;;;;;;;11.85;7.78;;;15.00;81.90;;;;;;5060535;28;20083;-75
2022/04/20 08:31:38;;;;;;;7.60;5.13;;;15.20;81.10;;;;;;5065510;28;20428;-76
2022/04/20 08:34:04;;;;;;;6.15;4.32;;;15.30;78.30;;;;;;5053792;28;20453;-76
2022/04/20 08:36:30;;;;;;;8.65;4.60;;;15.40;77.70;;;;;;5069775;28;20036;-76
2022/04/20 08:38:56;;;;;;;6.65;4.50;;;15.50;77.10;;;;;;5074639;28;20020;-75
2022/04/20 08:41:22;;;;;;;6.93;4.30;;;15.70;76.50;;;;;;5073699;28;20442;-75
2022/04/20 08:43:47;;;;;;;10.77;4.75;;;15.80;75.60;;;;;;5074084;28;20020;-75
2022/04/20 08:46:17;;;;;;;7.78;4.47;;;15.90;73.10;;;;;;5074038;28;20408;-75
2022/04/20 08:48:42;;;;;;;8.77;4.55;;;16.00;72.00;;;;;;5055721;28;20064;-76
2022/04/20 08:51:08;;;;;;;8.55;5.18;;;16.10;70.60;;;;;;5073367;28;20428;-76
2022/04/20 08:53:35;;;;;;;9.55;5.22;;;16.20;71.30;;;;;;5073387;28;20476;-75
2022/04/20 08:58:50;;;;;;;9.27;4.85;;;16.30;70.90;;;;;;5073447;28;20027;-75
2022/04/20 09:01:17;;;;;;;8.45;4.80;;;16.40;70.80;;;;;;5073363;28;20112;-76
2022/04/20 09:03:47;;;;;;;6.45;4.72;;;16.50;70.30;;;;;;5073611;28;20012;-76
2022/04/20 09:06:14;;;;;;;9.27;4.85;;;16.50;70.00;;;;;;5073701;28;20032;-76
2022/04/20 09:08:40;;;;;;;6.75;4.88;;;16.60;69.20;;;;;;5055406;28;20452;-75
2022/04/20 09:11:07;;;;;;;8.93;5.03;;;16.70;69.10;;;;;;5073122;28;20110;-76
2022/04/20 09:13:41;;;;;;;11.32;4.88;;;16.90;68.00;;;;;;5073035;28;20079;-75
2022/04/20 09:16:11;;;;;;;11.52;5.43;;;17.00;66.80;;;;;;5073529;28;20619;-76
2022/04/20 09:18:38;;;;;;;11.18;4.75;;;17.10;66.50;;;;;;5055514;28;20056;-75
2022/04/20 09:21:09;;;;;;;7.03;4.57;;;17.10;65.40;;;;;;5073186;28;20044;-76
2022/04/20 09:23:34;;;;;;;7.13;4.68;;;17.20;65.10;;;;;;5073189;28;20034;-78
2022/04/20 09:26:15;;;;;;;10.00;4.45;;;17.20;63.90;;;;;;5073366;28;20028;-77
2022/04/20 09:28:44;;;;;;;7.60;4.80;;;17.30;62.70;;;;;;5056134;28;20421;-76
2022/04/20 09:31:11;;;;;;;8.45;4.25;;;17.30;62.70;;;;;;5073143;28;20052;-77
2022/04/20 09:33:50;;;;;;;8.45;3.90;;;17.30;62.30;;;;;;5073009;28;20123;-76
2022/04/20 09:36:42;;;;;;;7.65;3.90;;;17.30;60.80;;;;;;5073190;28;20064;-76
2022/04/20 09:39:09;;;;;;;5.93;3.80;;;17.30;60.20;;;;;;5073087;28;20444;-77
2022/04/20 09:41:55;;;;;;;5.47;3.53;;;17.40;59.80;;;;;;5076906;28;20084;-76
2022/04/20 09:44:22;;;;;;;6.60;3.47;;;17.50;59.90;;;;;;5081632;28;20086;-77
2022/04/20 09:49:55;;;;;;;6.00;3.25;;;17.80;59.70;;;;;;5073746;28;20066;-78
2022/04/20 09:52:20;;;;;;;7.68;3.30;;;17.90;58.30;;;;;;5055764;28;20531;-77
2022/04/20 09:54:55;;;;;;;4.80;3.10;;;17.90;57.60;;;;;;5072997;28;20017;-76
2022/04/20 09:57:21;;;;;;;6.00;3.38;;;17.90;57.40;;;;;;5073096;28;20040;-75
2022/04/20 10:00:00;;;;;;;4.72;3.08;;;18.00;57.80;;;;;;5072681;28;20036;-74
2022/04/20 10:02:28;;;;;;;4.57;3.42;;;18.00;56.80;;;;;;5072169;28;20065;-73
2022/04/20 10:04:55;;;;;;;6.93;3.05;;;18.00;56.30;;;;;;5072221;28;20016;-74
2022/04/20 10:07:20;;;;;;;4.13;3.00;;;18.00;56.80;;;;;;5073235;28;20028;-76
2022/04/20 10:09:46;;;;;;;5.97;2.88;;;18.00;55.70;;;;;;5071319;28;20013;-76
2022/04/20 10:12:15;;;;;;;7.88;3.47;;;18.10;54.90;;;;;;5065571;28;20033;-79
2022/04/20 10:17:30;;;;;;;4.47;3.03;;;18.20;54.80;;;;;;5055714;28;20036;-81
2022/04/20 10:19:57;;;;;;;6.55;3.22;;;18.20;54.10;;;;;;5075792;28;20076;-81
2022/04/20 10:22:27;;;;;;;4.72;2.78;;;18.30;53.90;;;;;;5074217;28;20021;-82
2022/04/20 10:24:55;;;;;;;4.60;2.80;;;18.30;54.00;;;;;;5073539;28;20111;-82
2022/04/20 10:27:43;;;;;;;3.00;2.17;;;18.40;52.50;;;;;;5073557;28;20023;-83
2022/04/20 10:30:18;;;;;;;4.88;2.75;;;18.40;52.10;;;;;;5075327;28;20024;-81
2022/04/20 10:33:05;;;;;;;5.70;2.50;;;18.50;51.20;;;;;;5073531;28;20028;-82
2022/04/20 10:35:32;;;;;;;4.00;2.50;;;18.50;51.20;;;;;;5074545;28;20048;-82
2022/04/20 10:38:12;;;;;;;3.72;2.90;;;18.50;51.90;;;;;;5073255;28;20020;-82
2022/04/20 10:40:57;;;;;;;4.10;2.70;;;18.60;51.90;;;;;;5074510;28;20020;-82
2022/04/20 10:43:24;;;;;;;5.28;2.60;;;18.80;51.10;;;;;;5075383;28;20431;-82
2022/04/20 10:46:22;;;;;;;4.25;2.63;;;18.80;50.60;;;;;;5073686;28;20345;-81
2022/04/20 10:48:58;;;;;;;4.20;3.00;;;18.90;51.00;;;;;;5019913;28;20028;-82
2022/04/20 10:51:30;;;;;;;3.58;2.75;;;19.00;50.60;;;;;;5075106;28;20028;-80
2022/04/20 10:54:26;;;;;;;4.75;2.80;;;19.00;50.30;;;;;;5075037;28;20400;-80
2022/04/20 10:57:00;;;;;;;;;;;19.10;50.30;;;;;;5075089;28;20047;-78
2022/04/20 10:59:27;;;;;;;4.03;2.63;;;19.10;49.70;;;;;;5076764;28;19904;-77
2022/04/20 11:01:58;;;;;;;3.50;2.55;;;19.10;49.80;;;;;;5074448;28;20056;-77
2022/04/20 11:04:43;;;;;;;3.42;2.70;;;19.20;50.00;;;;;;5069910;28;20029;-77
2022/04/20 11:07:08;;;;;;;5.32;2.83;;;19.30;49.30;;;;;;5079514;28;21012;-78
2022/04/20 11:09:45;;;;;;;4.78;2.65;;;19.20;49.40;;;;;;5080682;28;20052;-78
2022/04/20 11:21:06;;;;;;;5.60;3.50;;;19.50;49.40;;;;;;5078371;28;20043;-78
2022/04/20 11:24:00;;;;;;;8.82;3.55;;;19.50;49.50;;;;;;5076153;28;20037;-76
2022/04/20 11:26:39;;;;;;;8.07;4.00;;;19.50;49.60;;;;;;5073630;28;20082;-75
2022/04/20 11:29:08;;;;;;;5.72;3.38;;;19.50;49.40;;;;;;5073905;28;20036;-76
2022/04/20 11:31:48;;;;;;;7.70;3.88;;;19.50;50.00;;;;;;5073558;28;20017;-75
2022/04/20 11:34:16;;;;;;;6.80;3.53;;;19.50;49.40;;;;;;5069450;28;20503;-75
2022/04/20 11:36:55;;;;;;;7.32;3.60;;;19.50;49.60;;;;;;5073382;28;20350;-74
2022/04/20 11:39:23;;;;;;;7.90;3.60;;;19.70;49.70;;;;;;5074550;28;20021;-76
2022/04/20 11:41:51;;;;;;;6.63;3.60;;;19.70;49.90;;;;;;5074230;28;20036;-74
2022/04/20 11:44:35;;;;;;;6.20;3.58;;;19.80;49.40;;;;;;5070914;28;20060;-74
2022/04/20 11:47:06;;;;;;;4.35;3.22;;;19.90;48.90;;;;;;5064633;28;20021;-74
2022/04/20 11:49:33;;;;;;;8.65;3.20;;;19.90;49.00;;;;;;5070828;28;20025;-74
2022/04/20 11:51:59;;;;;;;6.75;3.63;;;20.00;49.20;;;;;;5069630;28;20052;-73
2022/04/20 11:54:27;;;;;;;5.93;3.90;;;20.00;48.70;;;;;;5070559;28;20051;-75
2022/04/20 11:56:53;;;;;;;5.30;3.42;;;20.00;48.80;;;;;;5069852;28;20074;-73
2022/04/20 11:59:21;;;;;;;4.95;3.33;;;20.20;48.90;;;;;;5070948;28;20025;-75
2022/04/20 12:01:47;;;;;;;4.15;3.65;;;20.20;48.60;;;;;;5051651;28;20033;-75
2022/04/20 12:04:18;;;;;;;5.20;3.67;;;20.20;48.90;;;;;;5050879;28;20057;-75
2022/04/20 12:06:53;;;;;;;7.80;3.22;;;20.30;48.60;;;;;;5052178;28;20040;-74
2022/04/20 12:09:24;;;;;;;4.68;3.50;;;20.40;48.50;;;;;;5055323;28;20408;-77
2022/04/20 12:12:09;;;;;;;5.38;3.20;;;20.40;48.80;;;;;;5053495;28;20447;-76
2022/04/20 12:14:37;;;;;;;8.10;3.55;;;20.40;48.30;;;;;;5051360;28;20424;-76
2022/04/20 12:17:11;;;;;;;5.72;3.33;;;20.30;48.30;;;;;;5051716;28;20393;-76
2022/04/20 12:19:41;;;;;;;8.95;3.50;;;20.30;48.50;;;;;;5052079;28;20119;-77
2022/04/20 12:22:15;;;;;;;7.47;3.65;;;20.40;48.60;;;;;;5067399;28;20032;-76
2022/04/20 12:24:42;;;;;;;6.15;3.15;;;20.40;48.10;;;;;;5072555;28;20338;-75
2022/04/20 12:27:21;;;;;;;5.30;3.20;;;20.40;48.20;;;;;;5072119;28;20030;-78
2022/04/20 12:29:58;;;;;;;6.35;3.10;;;20.60;48.40;;;;;;5072364;28;20048;-77
2022/04/20 12:32:33;;;;;;;5.72;2.67;;;20.70;48.10;;;;;;5070947;28;20079;-76
2022/04/20 12:35:02;;;;;;;4.47;3.10;;;20.70;48.00;;;;;;5078203;28;20037;-76
2022/04/20 12:37:29;;;;;;;5.50;2.97;;;20.70;47.90;;;;;;5081134;28;20030;-78
2022/04/20 12:39:55;;;;;;;7.53;3.00;;;20.70;48.00;;;;;;5094647;28;20032;-78
2022/04/20 12:42:21;;;;;;;5.68;2.92;;;20.60;47.80;;;;;;5087969;28;20017;-77
2022/04/20 12:44:54;;;;;;;3.72;2.60;;;20.70;47.70;;;;;;5091085;28;20024;-77
2022/04/20 12:47:20;;;;;;;5.00;2.88;;;20.70;48.00;;;;;;5094391;28;20072;-77
2022/04/20 12:50:11;;;;;;;5.60;2.80;;;20.70;48.10;;;;;;5087827;28;20033;-78
2022/04/20 12:52:47;;;;;;;3.63;2.58;;;20.70;48.10;;;;;;5073883;28;20488;-76
2022/04/20 12:55:16;;;;;;;5.43;2.60;;;20.70;47.90;;;;;;5079842;28;20024;-76
2022/04/20 13:02:01;;;;;;;4.57;2.70;;;20.80;47.50;;;;;;5077497;28;20051;-75
2022/04/20 13:03:31;;;;;;;5.03;2.83;;;20.80;48.30;;;;;;5071042;28;20067;-76
2022/04/20 13:05:57;;;;;;;5.93;2.90;;;20.80;48.40;;;;;;5079949;28;20032;-76
2022/04/20 13:08:23;;;;;;;4.20;2.55;;;20.80;48.50;;;;;;5078519;28;20047;-76
2022/04/20 13:10:49;;;;;;;3.78;2.70;;;20.90;48.00;;;;;;5077175;28;20082;-76
2022/04/20 13:13:15;;;;;;;3.63;2.72;;;20.90;48.10;;;;;;5073461;28;20472;-74
2022/04/20 13:15:40;;;;;;;4.30;2.45;;;20.90;48.30;;;;;;5069960;28;20078;-73
2022/04/20 13:18:09;;;;;;;7.05;2.90;;;21.00;48.20;;;;;;5065235;28;20430;-72
2022/04/20 13:20:35;;;;;;;4.30;2.85;;;20.90;48.30;;;;;;5074142;28;20062;-75
2022/04/20 13:23:01;;;;;;;7.07;2.80;;;20.90;48.50;;;;;;5073780;28;20029;-73
2022/04/20 13:28:11;;;;;;;5.45;2.67;;;20.90;48.40;;;;;;5062680;28;20099;-76
2022/04/20 13:30:39;;;;;;;3.20;2.38;;;20.90;48.40;;;;;;5058825;28;20100;-78
2022/04/20 13:33:13;;;;;;;4.60;2.92;;;21.00;48.40;;;;;;5066392;28;20392;-77